Hooper, Nebraska
Current Conditions -  °F | °C
As of 4:35 AM on Thursday 23 Oct 2014 (Local Time) from KFET Reporting Station
Moderate Fog Moderate Fog  
Wind Chill: 59°   Ceiling: 3700
Heat Index: 59°   Visibility: 0.25mi
Dew Point: 57°   Wind: 0mph
Humidity: 94%   Direction: NA
Pressure: 30.03"   Gusts: NA
Location:  41.61°N, 96.55°W
Report Text: KFET 230935Z AUTO 00000KT 1/4SM FG BKN037 15/14 A3003 RMK AO2 T01500141
Loading
Personal Weather Stations






























Interactive Weather Map
Tropical Storm Tracking
New forecast layout! Learn more

10-Day Weather Forecast

Advertisements
Track Severe Weather on mobile